createdAt,value
2018-11-04T00:03:29.181Z,3.73
2018-11-04T00:08:33.436Z,3.97
2018-11-04T00:13:37.658Z,4.20
2018-11-04T00:18:41.894Z,3.73
2018-11-04T00:23:46.141Z,3.70
2018-11-04T00:28:50.435Z,4.30
2018-11-04T00:33:54.607Z,4.07
2018-11-04T00:38:58.824Z,3.67
2018-11-04T00:44:02.989Z,3.70
2018-11-04T00:49:07.286Z,4.00
2018-11-04T00:54:11.468Z,4.20
2018-11-04T00:59:15.669Z,4.43
2018-11-04T01:04:19.925Z,4.07
2018-11-04T01:09:24.103Z,4.73
2018-11-04T01:14:28.400Z,3.77
2018-11-04T01:19:32.598Z,4.50
2018-11-04T01:24:36.942Z,5.20
2018-11-04T01:29:41.181Z,4.87
2018-11-04T01:34:45.353Z,4.73
2018-11-04T01:39:49.519Z,5.40
2018-11-04T01:44:53.821Z,4.40
2018-11-04T01:49:57.960Z,4.40
2018-11-04T01:55:02.295Z,4.33
2018-11-04T02:00:11.516Z,4.53
2018-11-04T02:05:16.296Z,4.37
2018-11-04T02:10:20.462Z,4.83
2018-11-04T02:15:24.703Z,4.57
2018-11-04T02:20:28.984Z,4.90
2018-11-04T02:25:33.174Z,4.63
2018-11-04T02:30:37.829Z,4.63
2018-11-04T02:40:51.636Z,4.47
2018-11-04T02:45:55.816Z,4.77
2018-11-04T02:50:59.966Z,4.57
2018-11-04T02:56:04.187Z,4.80
2018-11-04T03:01:08.323Z,4.70
2018-11-04T03:06:12.510Z,4.97
2018-11-04T03:11:16.826Z,5.13
2018-11-04T03:16:20.991Z,4.67
2018-11-04T03:21:25.161Z,4.20
2018-11-04T03:26:29.450Z,5.30
2018-11-04T03:31:33.627Z,5.00
2018-11-04T03:36:37.836Z,5.07
2018-11-04T03:41:42.771Z,4.27
2018-11-04T03:46:46.937Z,5.03
2018-11-04T03:51:51.176Z,5.30
2018-11-04T03:56:55.428Z,5.30
2018-11-04T04:01:59.727Z,4.80
2018-11-04T04:07:04.011Z,4.60
2018-11-04T04:12:08.215Z,5.00
2018-11-04T04:17:12.410Z,4.80
2018-11-04T04:22:16.668Z,4.73
2018-11-04T04:27:20.929Z,4.83
2018-11-04T04:32:25.160Z,5.10
2018-11-04T04:37:29.369Z,4.77
2018-11-04T04:42:33.674Z,5.03
2018-11-04T04:47:37.836Z,4.87
2018-11-04T04:52:42.008Z,4.53
2018-11-04T04:57:46.181Z,4.97
2018-11-04T05:02:50.407Z,5.10
2018-11-04T05:07:54.968Z,4.83
2018-11-04T05:12:59.130Z,5.13
2018-11-04T05:18:03.361Z,4.97
2018-11-04T05:23:07.541Z,4.80
2018-11-04T05:28:11.711Z,5.30
2018-11-04T05:33:15.929Z,5.80
2018-11-04T05:38:20.153Z,5.07
2018-11-04T05:43:24.340Z,4.97
2018-11-04T05:48:28.528Z,5.60
2018-11-04T05:53:32.674Z,5.57
2018-11-04T05:58:40.030Z,4.93
2018-11-04T06:03:44.228Z,5.23
2018-11-04T06:08:48.460Z,5.17
2018-11-04T06:13:52.648Z,4.90
2018-11-04T06:18:56.825Z,5.00
2018-11-04T06:24:01.137Z,5.07
2018-11-04T06:29:05.328Z,5.13
2018-11-04T06:34:09.478Z,4.93
2018-11-04T06:39:13.622Z,4.83
2018-11-04T06:44:17.811Z,4.63
2018-11-04T06:49:22.220Z,5.40
2018-11-04T06:54:26.473Z,5.00
2018-11-04T06:59:30.699Z,4.93
2018-11-04T07:04:34.905Z,5.27
2018-11-04T07:09:39.084Z,5.10
2018-11-04T07:20:21.577Z,4.87
2018-11-04T07:25:25.784Z,5.20
2018-11-04T07:30:30.099Z,5.07
2018-11-04T07:35:34.293Z,5.63
2018-11-04T07:40:38.484Z,5.37
2018-11-04T07:45:42.685Z,4.80
2018-11-04T07:50:46.897Z,5.83
2018-11-04T07:55:51.042Z,6.87
2018-11-04T08:00:55.308Z,5.50
2018-11-04T08:05:59.533Z,5.30
2018-11-04T08:11:03.699Z,5.37
2018-11-04T08:16:07.900Z,5.63
2018-11-04T08:21:12.079Z,4.87
2018-11-04T08:26:16.262Z,5.30
2018-11-04T08:31:20.506Z,5.13
2018-11-04T08:36:24.716Z,5.43
2018-11-04T08:41:28.895Z,5.60
2018-11-04T08:46:33.087Z,5.70
2018-11-04T08:51:37.331Z,6.03
2018-11-04T08:56:41.555Z,6.43
2018-11-04T09:01:45.781Z,5.90
2018-11-04T09:06:50.037Z,6.47
2018-11-04T09:11:54.261Z,5.60
2018-11-04T09:16:58.537Z,6.20
2018-11-04T09:22:03.032Z,6.73
2018-11-04T09:27:06.909Z,6.40
2018-11-04T09:32:11.082Z,6.83
2018-11-04T09:37:15.390Z,6.87
2018-11-04T09:42:19.564Z,6.90
2018-11-04T09:47:23.901Z,6.70
2018-11-04T09:52:28.098Z,7.97
2018-11-04T09:57:32.252Z,7.40
2018-11-04T10:02:36.650Z,7.30
2018-11-04T10:07:40.967Z,7.17
2018-11-04T10:12:45.387Z,8.47
2018-11-04T10:17:49.620Z,8.50
2018-11-04T10:22:53.872Z,8.17
2018-11-04T10:27:58.160Z,9.57
2018-11-04T10:33:02.420Z,9.40
2018-11-04T10:38:06.671Z,9.10
2018-11-04T10:43:10.827Z,9.60
2018-11-04T10:48:14.974Z,11.37
2018-11-04T10:53:19.171Z,10.93
2018-11-04T10:58:23.432Z,12.93
2018-11-04T11:03:27.635Z,11.13
2018-11-04T11:08:32.036Z,12.47
2018-11-04T11:13:36.343Z,11.70
2018-11-04T11:18:40.513Z,9.37
2018-11-04T11:23:44.754Z,10.40
2018-11-04T11:28:49.006Z,11.17
2018-11-04T11:33:53.266Z,10.73
2018-11-04T11:38:57.465Z,11.27
2018-11-04T11:44:01.696Z,10.73
2018-11-04T11:49:06.012Z,10.33
2018-11-04T11:54:10.222Z,11.37
2018-11-04T11:59:14.440Z,9.90
2018-11-04T12:04:18.607Z,10.90
2018-11-04T12:09:22.824Z,11.40
2018-11-04T12:14:27.010Z,12.07
2018-11-04T12:19:31.259Z,12.20
2018-11-04T12:24:35.544Z,14.93
2018-11-04T12:29:39.825Z,12.90
2018-11-04T12:34:44.067Z,12.73
2018-11-04T12:39:48.275Z,12.63
2018-11-04T12:44:52.497Z,12.07
2018-11-04T12:49:56.731Z,12.00
2018-11-04T12:55:00.983Z,12.10
2018-11-04T13:00:08.171Z,12.50
2018-11-04T13:05:12.395Z,12.87
2018-11-04T13:10:16.800Z,12.07
2018-11-04T13:15:20.973Z,11.13
2018-11-04T13:20:25.381Z,11.90
2018-11-04T13:25:29.571Z,12.20
2018-11-04T13:30:33.756Z,12.33
2018-11-04T13:35:37.998Z,11.03
2018-11-04T13:40:42.283Z,12.23
2018-11-04T13:45:46.492Z,11.80
2018-11-04T13:50:50.745Z,11.23
2018-11-04T13:55:54.982Z,12.60
2018-11-04T14:00:59.176Z,10.53
2018-11-04T14:06:03.434Z,11.60
2018-11-04T14:11:07.612Z,11.50
2018-11-04T14:16:11.936Z,12.80
2018-11-04T14:21:16.107Z,12.53
2018-11-04T14:26:20.392Z,12.20
2018-11-04T14:31:24.592Z,10.60
2018-11-04T14:36:28.837Z,9.67
2018-11-04T14:41:33.084Z,10.83
2018-11-04T14:46:37.267Z,11.27
2018-11-04T14:51:42.350Z,11.77
2018-11-04T14:56:46.564Z,11.93
2018-11-04T15:01:50.920Z,12.73
2018-11-04T15:06:55.110Z,11.63
2018-11-04T15:11:59.583Z,13.27
2018-11-04T15:17:03.873Z,12.30
2018-11-04T15:22:08.194Z,13.30
2018-11-04T15:27:12.398Z,12.53
2018-11-04T15:32:16.836Z,11.70
2018-11-04T15:37:22.368Z,11.97
2018-11-04T15:42:27.896Z,13.60
2018-11-04T15:47:32.673Z,12.63
2018-11-04T15:52:37.524Z,11.43
2018-11-04T15:57:41.826Z,10.30
2018-11-04T16:02:46.057Z,11.13
2018-11-04T16:07:50.311Z,10.93
2018-11-04T16:12:54.525Z,11.80
2018-11-04T16:17:58.739Z,12.73
2018-11-04T16:23:02.961Z,13.03
2018-11-04T16:28:07.230Z,11.60
2018-11-04T16:33:11.672Z,13.27
2018-11-04T16:38:15.860Z,10.90
2018-11-04T16:43:20.071Z,10.97
2018-11-04T16:48:24.284Z,11.80
2018-11-04T16:53:28.507Z,12.07
2018-11-04T16:58:33.197Z,12.77
2018-11-04T17:03:37.441Z,11.97
2018-11-04T17:08:41.868Z,11.47
2018-11-04T17:13:46.242Z,11.40
2018-11-04T17:18:50.483Z,12.80
2018-11-04T17:23:54.705Z,11.83
2018-11-04T17:28:58.981Z,11.07
2018-11-04T17:34:03.143Z,11.50
2018-11-04T17:39:09.496Z,11.73
2018-11-04T17:44:13.732Z,10.50
2018-11-04T17:49:17.895Z,10.27
2018-11-04T17:54:22.705Z,10.30
2018-11-04T17:59:26.877Z,9.57
2018-11-04T18:04:31.124Z,10.17
2018-11-04T18:09:35.273Z,10.40
2018-11-04T18:14:39.601Z,10.03
2018-11-04T18:19:43.790Z,9.80
2018-11-04T18:24:48.572Z,10.37
2018-11-04T18:29:52.880Z,11.97
2018-11-04T18:34:57.719Z,11.90
2018-11-04T18:40:02.283Z,11.03
2018-11-04T18:45:08.101Z,10.03
2018-11-04T18:50:13.447Z,11.27
2018-11-04T18:55:18.276Z,10.93
2018-11-04T19:00:23.824Z,11.17
2018-11-04T19:05:28.736Z,12.30
2018-11-04T19:10:32.935Z,12.77
2018-11-04T19:15:37.422Z,13.03
2018-11-04T19:20:41.742Z,13.67
2018-11-04T19:25:45.984Z,12.50
2018-11-04T19:30:50.279Z,12.43
2018-11-04T19:35:55.073Z,10.63
2018-11-04T19:40:59.790Z,10.00
2018-11-04T19:46:04.332Z,10.87
2018-11-04T19:51:10.196Z,10.83
2018-11-04T19:56:15.035Z,11.40
2018-11-04T20:01:19.547Z,9.50
2018-11-04T20:06:24.906Z,8.97
2018-11-04T20:11:29.286Z,9.33
2018-11-04T20:16:33.581Z,10.60
2018-11-04T20:21:38.201Z,9.90
2018-11-04T20:26:43.261Z,11.63
2018-11-04T20:31:52.741Z,12.47
2018-11-04T20:36:57.056Z,10.83
2018-11-04T20:42:01.349Z,10.87
2018-11-04T20:47:07.013Z,9.77
2018-11-04T20:52:11.197Z,10.70
2018-11-04T20:57:21.016Z,10.53
2018-11-04T21:02:25.502Z,12.03
2018-11-04T21:07:29.469Z,11.13
2018-11-04T21:12:33.709Z,11.00
2018-11-04T21:17:37.885Z,12.97
2018-11-04T21:22:42.149Z,11.63
2018-11-04T21:27:46.376Z,11.53
2018-11-04T21:32:50.805Z,10.47
2018-11-04T21:37:55.043Z,11.63
2018-11-04T21:42:59.189Z,9.47
2018-11-04T21:48:03.350Z,9.83
2018-11-04T21:53:07.540Z,10.47
2018-11-04T21:58:14.277Z,11.03
2018-11-04T22:03:18.607Z,10.60
2018-11-04T22:08:22.693Z,10.60
2018-11-04T22:13:26.990Z,12.57
2018-11-04T22:18:31.189Z,10.13
2018-11-04T22:23:35.380Z,8.37
2018-11-04T22:28:39.563Z,8.63
2018-11-04T22:33:43.771Z,9.00
2018-11-04T22:38:48.060Z,7.97
2018-11-04T22:43:52.312Z,9.17
2018-11-04T22:48:56.618Z,9.63
2018-11-04T22:54:00.796Z,10.67
2018-11-04T22:59:05.348Z,11.67
2018-11-04T23:04:09.638Z,9.63
2018-11-04T23:09:13.763Z,12.00
2018-11-04T23:14:18.058Z,10.70
2018-11-04T23:19:22.186Z,10.03
2018-11-04T23:24:26.366Z,10.10
2018-11-04T23:29:30.513Z,11.90
2018-11-04T23:34:34.797Z,11.07
2018-11-04T23:39:38.978Z,10.00
2018-11-04T23:44:43.222Z,10.53
2018-11-04T23:49:47.643Z,9.67
2018-11-04T23:54:51.834Z,9.27
2018-11-04T23:59:56.032Z,8.57
